sensor_id;sensor_type;location;lat;lon;timestamp;temperature;humidity
1766;DHT22;880;52.452;8.656;2023-04-03T00:01:11;3.80;99.90
1766;DHT22;880;52.452;8.656;2023-04-03T00:03:38;3.80;99.90
1766;DHT22;880;52.452;8.656;2023-04-03T00:06:05;3.80;99.90
1766;DHT22;880;52.452;8.656;2023-04-03T00:08:33;3.80;99.90
1766;DHT22;880;52.452;8.656;2023-04-03T00:11:02;3.80;99.90
1766;DHT22;880;52.452;8.656;2023-04-03T00:13:32;3.80;99.90
1766;DHT22;880;52.452;8.656;2023-04-03T00:16:00;3.70;99.90
1766;DHT22;880;52.452;8.656;2023-04-03T00:18:27;3.70;99.90
1766;DHT22;880;52.452;8.656;2023-04-03T00:20:54;3.70;99.90
1766;DHT22;880;52.452;8.656;2023-04-03T00:23:21;3.70;99.90
1766;DHT22;880;52.452;8.656;2023-04-03T00:25:52;3.60;99.90
1766;DHT22;880;52.452;8.656;2023-04-03T00:28:20;3.70;99.90
1766;DHT22;880;52.452;8.656;2023-04-03T00:30:49;3.60;99.90
1766;DHT22;880;52.452;8.656;2023-04-03T00:33:17;3.60;99.90
1766;DHT22;880;52.452;8.656;2023-04-03T00:35:45;3.60;99.90
1766;DHT22;880;52.452;8.656;2023-04-03T00:38:12;3.50;99.90
1766;DHT22;880;52.452;8.656;2023-04-03T00:40:43;3.50;99.90
1766;DHT22;880;52.452;8.656;2023-04-03T00:45:44;3.40;99.90
1766;DHT22;880;52.452;8.656;2023-04-03T00:48:43;3.30;99.90
1766;DHT22;880;52.452;8.656;2023-04-03T00:51:18;3.30;99.90
1766;DHT22;880;52.452;8.656;2023-04-03T00:53:50;3.20;99.90
1766;DHT22;880;52.452;8.656;2023-04-03T00:56:22;3.20;99.90
1766;DHT22;880;52.452;8.656;2023-04-03T00:58:54;3.20;99.90
1766;DHT22;880;52.452;8.656;2023-04-03T01:01:27;3.10;99.90
1766;DHT22;880;52.452;8.656;2023-04-03T01:03:55;3.00;99.90
1766;DHT22;880;52.452;8.656;2023-04-03T01:06:27;3.00;99.90
1766;DHT22;880;52.452;8.656;2023-04-03T01:09:03;3.00;99.90
1766;DHT22;880;52.452;8.656;2023-04-03T01:11:31;2.90;99.90
1766;DHT22;880;52.452;8.656;2023-04-03T01:14:00;2.90;99.90
1766;DHT22;880;52.452;8.656;2023-04-03T01:16:28;2.90;99.90
1766;DHT22;880;52.452;8.656;2023-04-03T01:18:59;3.00;99.90
1766;DHT22;880;52.452;8.656;2023-04-03T01:24:21;2.90;99.90
1766;DHT22;880;52.452;8.656;2023-04-03T01:26:52;2.90;99.90
1766;DHT22;880;52.452;8.656;2023-04-03T01:29:19;2.80;99.90
1766;DHT22;880;52.452;8.656;2023-04-03T01:31:54;2.80;99.90
1766;DHT22;880;52.452;8.656;2023-04-03T01:34:24;2.80;99.90
1766;DHT22;880;52.452;8.656;2023-04-03T01:36:51;2.80;99.90
1766;DHT22;880;52.452;8.656;2023-04-03T01:39:20;2.80;99.90
1766;DHT22;880;52.452;8.656;2023-04-03T01:41:48;2.70;99.90
1766;DHT22;880;52.452;8.656;2023-04-03T01:44:28;2.60;99.90
1766;DHT22;880;52.452;8.656;2023-04-03T01:46:55;2.60;99.90
1766;DHT22;880;52.452;8.656;2023-04-03T01:49:24;2.60;99.90
1766;DHT22;880;52.452;8.656;2023-04-03T01:51:51;2.50;99.90
1766;DHT22;880;52.452;8.656;2023-04-03T01:54:18;2.50;99.90
1766;DHT22;880;52.452;8.656;2023-04-03T01:56:45;2.40;99.90
1766;DHT22;880;52.452;8.656;2023-04-03T01:59:12;2.40;99.90
1766;DHT22;880;52.452;8.656;2023-04-03T02:01:39;2.40;99.90
1766;DHT22;880;52.452;8.656;2023-04-03T02:04:07;2.30;99.90
1766;DHT22;880;52.452;8.656;2023-04-03T02:06:34;2.30;99.90
1766;DHT22;880;52.452;8.656;2023-04-03T02:09:01;2.30;99.90
1766;DHT22;880;52.452;8.656;2023-04-03T02:11:30;2.30;99.90
1766;DHT22;880;52.452;8.656;2023-04-03T02:13:57;2.20;99.90
1766;DHT22;880;52.452;8.656;2023-04-03T02:16:24;2.20;99.90
1766;DHT22;880;52.452;8.656;2023-04-03T02:18:51;2.10;99.90
1766;DHT22;880;52.452;8.656;2023-04-03T02:21:18;2.10;99.90
1766;DHT22;880;52.452;8.656;2023-04-03T02:23:45;2.10;99.90
1766;DHT22;880;52.452;8.656;2023-04-03T02:26:14;2.00;99.90
1766;DHT22;880;52.452;8.656;2023-04-03T02:28:44;2.00;99.90
1766;DHT22;880;52.452;8.656;2023-04-03T02:31:11;2.00;99.90
1766;DHT22;880;52.452;8.656;2023-04-03T02:33:40;1.90;99.90
1766;DHT22;880;52.452;8.656;2023-04-03T02:36:09;1.90;99.90
1766;DHT22;880;52.452;8.656;2023-04-03T02:38:39;1.90;99.90
1766;DHT22;880;52.452;8.656;2023-04-03T02:41:10;1.90;99.90
1766;DHT22;880;52.452;8.656;2023-04-03T02:43:38;1.90;99.90
1766;DHT22;880;52.452;8.656;2023-04-03T02:46:05;1.80;99.90
1766;DHT22;880;52.452;8.656;2023-04-03T02:48:33;1.90;99.90
1766;DHT22;880;52.452;8.656;2023-04-03T02:51:01;1.80;99.90
1766;DHT22;880;52.452;8.656;2023-04-03T02:53:28;1.80;99.90
1766;DHT22;880;52.452;8.656;2023-04-03T02:55:56;1.80;99.90
1766;DHT22;880;52.452;8.656;2023-04-03T02:58:23;1.80;99.90
1766;DHT22;880;52.452;8.656;2023-04-03T03:00:53;1.80;99.90
1766;DHT22;880;52.452;8.656;2023-04-03T03:03:20;1.70;99.90
1766;DHT22;880;52.452;8.656;2023-04-03T03:05:47;1.80;99.90
1766;DHT22;880;52.452;8.656;2023-04-03T03:08:14;1.80;99.90
1766;DHT22;880;52.452;8.656;2023-04-03T03:10:41;1.70;99.90
1766;DHT22;880;52.452;8.656;2023-04-03T03:13:08;1.70;99.90
1766;DHT22;880;52.452;8.656;2023-04-03T03:15:35;1.70;99.90
1766;DHT22;880;52.452;8.656;2023-04-03T03:18:02;1.70;99.90
1766;DHT22;880;52.452;8.656;2023-04-03T03:20:29;1.60;99.90
1766;DHT22;880;52.452;8.656;2023-04-03T03:22:57;1.60;99.90
1766;DHT22;880;52.452;8.656;2023-04-03T03:25:24;1.60;99.90
1766;DHT22;880;52.452;8.656;2023-04-03T03:27:51;1.60;99.90
1766;DHT22;880;52.452;8.656;2023-04-03T03:30:18;1.60;99.90
1766;DHT22;880;52.452;8.656;2023-04-03T03:32:46;1.50;99.90
1766;DHT22;880;52.452;8.656;2023-04-03T03:35:13;1.50;99.90
1766;DHT22;880;52.452;8.656;2023-04-03T03:37:40;1.50;99.90
1766;DHT22;880;52.452;8.656;2023-04-03T03:40:08;1.50;99.90
1766;DHT22;880;52.452;8.656;2023-04-03T03:42:37;1.50;99.90
1766;DHT22;880;52.452;8.656;2023-04-03T03:45:04;1.50;99.90
1766;DHT22;880;52.452;8.656;2023-04-03T03:47:32;1.50;99.90
1766;DHT22;880;52.452;8.656;2023-04-03T03:49:59;1.50;99.90
1766;DHT22;880;52.452;8.656;2023-04-03T03:52:26;1.40;99.90
1766;DHT22;880;52.452;8.656;2023-04-03T03:54:53;1.50;99.90
1766;DHT22;880;52.452;8.656;2023-04-03T03:57:21;1.40;99.90
1766;DHT22;880;52.452;8.656;2023-04-03T03:59:48;1.40;99.90
1766;DHT22;880;52.452;8.656;2023-04-03T04:02:17;1.40;99.90
1766;DHT22;880;52.452;8.656;2023-04-03T04:04:44;1.40;99.90
1766;DHT22;880;52.452;8.656;2023-04-03T04:07:13;1.30;99.90
1766;DHT22;880;52.452;8.656;2023-04-03T04:09:40;1.20;99.90
1766;DHT22;880;52.452;8.656;2023-04-03T04:12:08;1.20;99.90
1766;DHT22;880;52.452;8.656;2023-04-03T04:14:36;1.20;99.90
1766;DHT22;880;52.452;8.656;2023-04-03T04:17:05;1.10;99.90
1766;DHT22;880;52.452;8.656;2023-04-03T04:19:32;1.20;99.90
1766;DHT22;880;52.452;8.656;2023-04-03T04:21:59;1.20;99.90
1766;DHT22;880;52.452;8.656;2023-04-03T04:24:28;1.20;99.90
1766;DHT22;880;52.452;8.656;2023-04-03T04:26:56;1.20;99.90
1766;DHT22;880;52.452;8.656;2023-04-03T04:29:24;1.10;99.90
1766;DHT22;880;52.452;8.656;2023-04-03T04:31:52;1.10;99.90
1766;DHT22;880;52.452;8.656;2023-04-03T04:34:20;1.10;99.90
1766;DHT22;880;52.452;8.656;2023-04-03T04:36:48;1.00;99.90
1766;DHT22;880;52.452;8.656;2023-04-03T04:39:15;1.00;99.90
1766;DHT22;880;52.452;8.656;2023-04-03T04:41:42;1.00;99.90
1766;DHT22;880;52.452;8.656;2023-04-03T04:44:09;1.00;99.90
1766;DHT22;880;52.452;8.656;2023-04-03T04:46:37;1.00;99.90
1766;DHT22;880;52.452;8.656;2023-04-03T04:49:06;1.00;99.90
1766;DHT22;880;52.452;8.656;2023-04-03T04:51:33;1.00;99.90
1766;DHT22;880;52.452;8.656;2023-04-03T04:54:15;0.90;99.90
1766;DHT22;880;52.452;8.656;2023-04-03T04:56:44;1.00;99.90
1766;DHT22;880;52.452;8.656;2023-04-03T04:59:12;1.00;99.90
1766;DHT22;880;52.452;8.656;2023-04-03T05:01:39;1.00;99.90
1766;DHT22;880;52.452;8.656;2023-04-03T05:04:11;1.00;99.90
1766;DHT22;880;52.452;8.656;2023-04-03T05:06:39;1.00;99.90
1766;DHT22;880;52.452;8.656;2023-04-03T05:09:11;0.90;99.90
1766;DHT22;880;52.452;8.656;2023-04-03T05:11:41;0.90;99.90
1766;DHT22;880;52.452;8.656;2023-04-03T05:14:10;0.90;99.90
1766;DHT22;880;52.452;8.656;2023-04-03T05:16:38;0.90;99.90
1766;DHT22;880;52.452;8.656;2023-04-03T05:19:06;0.80;99.90
1766;DHT22;880;52.452;8.656;2023-04-03T05:21:33;0.80;99.90
1766;DHT22;880;52.452;8.656;2023-04-03T05:24:06;0.80;99.90
1766;DHT22;880;52.452;8.656;2023-04-03T05:26:38;0.80;99.90
1766;DHT22;880;52.452;8.656;2023-04-03T05:29:06;0.80;99.90
1766;DHT22;880;52.452;8.656;2023-04-03T05:31:34;0.80;99.90
1766;DHT22;880;52.452;8.656;2023-04-03T05:34:01;0.80;99.90
1766;DHT22;880;52.452;8.656;2023-04-03T05:36:30;0.80;99.90
1766;DHT22;880;52.452;8.656;2023-04-03T05:39:02;0.90;99.90
1766;DHT22;880;52.452;8.656;2023-04-03T05:41:31;0.90;99.90
1766;DHT22;880;52.452;8.656;2023-04-03T05:43:58;0.90;99.90
1766;DHT22;880;52.452;8.656;2023-04-03T05:46:26;1.00;99.90
1766;DHT22;880;52.452;8.656;2023-04-03T05:48:55;1.10;99.90
1766;DHT22;880;52.452;8.656;2023-04-03T05:51:30;1.20;99.90
1766;DHT22;880;52.452;8.656;2023-04-03T05:54:18;1.30;99.90
1766;DHT22;880;52.452;8.656;2023-04-03T05:56:51;1.50;99.90
1766;DHT22;880;52.452;8.656;2023-04-03T05:59:20;1.60;99.90
1766;DHT22;880;52.452;8.656;2023-04-03T06:01:51;1.70;99.90
1766;DHT22;880;52.452;8.656;2023-04-03T06:04:18;1.80;99.90
1766;DHT22;880;52.452;8.656;2023-04-03T06:06:51;1.90;99.90
1766;DHT22;880;52.452;8.656;2023-04-03T06:09:22;2.00;99.90
1766;DHT22;880;52.452;8.656;2023-04-03T06:11:51;2.00;99.90
1766;DHT22;880;52.452;8.656;2023-04-03T06:14:20;2.20;99.90
1766;DHT22;880;52.452;8.656;2023-04-03T06:16:48;2.30;99.90
1766;DHT22;880;52.452;8.656;2023-04-03T06:19:15;2.40;99.90
1766;DHT22;880;52.452;8.656;2023-04-03T06:21:46;2.50;99.90
1766;DHT22;880;52.452;8.656;2023-04-03T06:24:15;2.50;99.90
1766;DHT22;880;52.452;8.656;2023-04-03T06:26:43;2.60;99.90
1766;DHT22;880;52.452;8.656;2023-04-03T06:29:10;2.60;99.90
1766;DHT22;880;52.452;8.656;2023-04-03T06:31:37;2.60;99.90
1766;DHT22;880;52.452;8.656;2023-04-03T06:34:04;2.60;99.90
1766;DHT22;880;52.452;8.656;2023-04-03T06:36:35;2.60;99.90
1766;DHT22;880;52.452;8.656;2023-04-03T06:39:02;2.60;99.90
1766;DHT22;880;52.452;8.656;2023-04-03T06:41:29;2.80;99.90
1766;DHT22;880;52.452;8.656;2023-04-03T06:43:57;3.00;99.90
1766;DHT22;880;52.452;8.656;2023-04-03T06:46:26;3.10;99.90
1766;DHT22;880;52.452;8.656;2023-04-03T06:48:53;3.30;99.90
1766;DHT22;880;52.452;8.656;2023-04-03T06:51:21;3.40;99.90
1766;DHT22;880;52.452;8.656;2023-04-03T06:53:51;3.40;99.90
1766;DHT22;880;52.452;8.656;2023-04-03T06:56:20;3.40;99.90
1766;DHT22;880;52.452;8.656;2023-04-03T06:58:47;3.40;99.90
1766;DHT22;880;52.452;8.656;2023-04-03T07:01:17;3.50;99.90
1766;DHT22;880;52.452;8.656;2023-04-03T07:03:46;3.60;99.90
1766;DHT22;880;52.452;8.656;2023-04-03T07:06:16;3.80;99.90
1766;DHT22;880;52.452;8.656;2023-04-03T07:08:44;3.80;99.90
1766;DHT22;880;52.452;8.656;2023-04-03T07:11:12;3.80;99.90
1766;DHT22;880;52.452;8.656;2023-04-03T07:13:39;3.80;99.90
1766;DHT22;880;52.452;8.656;2023-04-03T07:16:07;3.90;99.90
1766;DHT22;880;52.452;8.656;2023-04-03T07:18:35;3.90;99.90
1766;DHT22;880;52.452;8.656;2023-04-03T07:21:04;3.90;99.90
1766;DHT22;880;52.452;8.656;2023-04-03T07:23:31;4.00;99.90
1766;DHT22;880;52.452;8.656;2023-04-03T07:26:02;4.00;99.90
1766;DHT22;880;52.452;8.656;2023-04-03T07:28:29;3.90;99.90
1766;DHT22;880;52.452;8.656;2023-04-03T07:31:04;3.90;99.90
1766;DHT22;880;52.452;8.656;2023-04-03T07:33:35;3.90;99.90
1766;DHT22;880;52.452;8.656;2023-04-03T07:36:03;4.10;99.90
1766;DHT22;880;52.452;8.656;2023-04-03T07:38:31;4.20;99.90
1766;DHT22;880;52.452;8.656;2023-04-03T07:40:58;4.40;99.90
1766;DHT22;880;52.452;8.656;2023-04-03T07:43:25;4.50;99.90
1766;DHT22;880;52.452;8.656;2023-04-03T07:45:52;4.50;99.90
1766;DHT22;880;52.452;8.656;2023-04-03T07:48:23;4.50;99.90
1766;DHT22;880;52.452;8.656;2023-04-03T07:50:51;4.50;99.90
1766;DHT22;880;52.452;8.656;2023-04-03T07:53:19;4.60;99.90
1766;DHT22;880;52.452;8.656;2023-04-03T07:55:47;4.60;99.90
1766;DHT22;880;52.452;8.656;2023-04-03T07:58:17;4.70;99.90
1766;DHT22;880;52.452;8.656;2023-04-03T08:00:45;4.70;99.90
1766;DHT22;880;52.452;8.656;2023-04-03T08:03:14;4.70;99.90
1766;DHT22;880;52.452;8.656;2023-04-03T08:05:45;4.70;99.90
1766;DHT22;880;52.452;8.656;2023-04-03T08:08:20;4.80;99.90
1766;DHT22;880;52.452;8.656;2023-04-03T08:10:52;5.00;99.90
1766;DHT22;880;52.452;8.656;2023-04-03T08:13:21;5.20;99.90
1766;DHT22;880;52.452;8.656;2023-04-03T08:15:48;5.50;99.90
1766;DHT22;880;52.452;8.656;2023-04-03T08:18:16;5.50;99.90
1766;DHT22;880;52.452;8.656;2023-04-03T08:20:44;5.40;99.90
1766;DHT22;880;52.452;8.656;2023-04-03T08:23:11;5.50;99.90
1766;DHT22;880;52.452;8.656;2023-04-03T08:25:39;5.50;99.90
1766;DHT22;880;52.452;8.656;2023-04-03T08:28:08;5.60;99.90
1766;DHT22;880;52.452;8.656;2023-04-03T08:30:41;5.80;99.90
1766;DHT22;880;52.452;8.656;2023-04-03T08:33:09;5.90;99.90
1766;DHT22;880;52.452;8.656;2023-04-03T08:35:40;6.00;99.90
1766;DHT22;880;52.452;8.656;2023-04-03T08:38:09;6.10;99.90
1766;DHT22;880;52.452;8.656;2023-04-03T08:40:36;6.20;99.90
1766;DHT22;880;52.452;8.656;2023-04-03T08:43:27;6.40;99.90
1766;DHT22;880;52.452;8.656;2023-04-03T08:46:04;6.40;99.90
1766;DHT22;880;52.452;8.656;2023-04-03T08:48:40;6.40;99.90
1766;DHT22;880;52.452;8.656;2023-04-03T08:51:20;6.50;99.90
1766;DHT22;880;52.452;8.656;2023-04-03T08:54:00;6.50;99.90
1766;DHT22;880;52.452;8.656;2023-04-03T08:56:31;6.70;99.90
1766;DHT22;880;52.452;8.656;2023-04-03T08:59:04;6.90;99.90
1766;DHT22;880;52.452;8.656;2023-04-03T09:01:38;7.00;99.90
1766;DHT22;880;52.452;8.656;2023-04-03T09:04:12;7.00;99.90
1766;DHT22;880;52.452;8.656;2023-04-03T09:07:07;7.20;99.90
1766;DHT22;880;52.452;8.656;2023-04-03T09:09:42;7.30;99.90
1766;DHT22;880;52.452;8.656;2023-04-03T09:12:19;7.20;99.90
1766;DHT22;880;52.452;8.656;2023-04-03T09:18:19;7.30;99.90
1766;DHT22;880;52.452;8.656;2023-04-03T09:21:13;7.40;99.90
1766;DHT22;880;52.452;8.656;2023-04-03T09:23:52;7.50;99.90
1766;DHT22;880;52.452;8.656;2023-04-03T09:26:34;7.60;99.90
1766;DHT22;880;52.452;8.656;2023-04-03T09:29:07;7.70;99.90
1766;DHT22;880;52.452;8.656;2023-04-03T09:31:40;7.70;99.90
1766;DHT22;880;52.452;8.656;2023-04-03T09:36:55;8.20;99.90
1766;DHT22;880;52.452;8.656;2023-04-03T09:39:26;8.40;99.90
1766;DHT22;880;52.452;8.656;2023-04-03T09:42:03;8.50;99.90
1766;DHT22;880;52.452;8.656;2023-04-03T09:44:38;8.60;99.90
1766;DHT22;880;52.452;8.656;2023-04-03T09:47:35;8.90;99.90
1766;DHT22;880;52.452;8.656;2023-04-03T09:52:41;9.10;99.90
1766;DHT22;880;52.452;8.656;2023-04-03T09:55:21;9.00;99.90
1766;DHT22;880;52.452;8.656;2023-04-03T09:58:00;9.10;99.90
1766;DHT22;880;52.452;8.656;2023-04-03T10:00:37;9.20;99.90
1766;DHT22;880;52.452;8.656;2023-04-03T10:03:33;9.40;99.90
1766;DHT22;880;52.452;8.656;2023-04-03T10:06:03;9.50;99.90
1766;DHT22;880;52.452;8.656;2023-04-03T10:08:33;9.50;99.90
1766;DHT22;880;52.452;8.656;2023-04-03T10:11:13;9.70;99.90
1766;DHT22;880;52.452;8.656;2023-04-03T10:13:51;9.70;99.90
1766;DHT22;880;52.452;8.656;2023-04-03T10:16:44;9.80;99.90
1766;DHT22;880;52.452;8.656;2023-04-03T10:19:39;10.10;99.90
1766;DHT22;880;52.452;8.656;2023-04-03T10:23:00;10.00;99.90
1766;DHT22;880;52.452;8.656;2023-04-03T10:25:47;9.60;99.90
1766;DHT22;880;52.452;8.656;2023-04-03T10:41:39;9.20;99.90
1766;DHT22;880;52.452;8.656;2023-04-03T10:45:06;9.70;99.90
1766;DHT22;880;52.452;8.656;2023-04-03T10:48:15;10.00;99.90
1766;DHT22;880;52.452;8.656;2023-04-03T10:51:08;9.90;99.90
1766;DHT22;880;52.452;8.656;2023-04-03T10:56:36;9.90;99.90
1766;DHT22;880;52.452;8.656;2023-04-03T11:05:07;8.80;99.90
1766;DHT22;880;52.452;8.656;2023-04-03T11:07:47;8.70;99.90
1766;DHT22;880;52.452;8.656;2023-04-03T11:10:23;8.70;99.90
1766;DHT22;880;52.452;8.656;2023-04-03T11:13:07;8.90;99.90
1766;DHT22;880;52.452;8.656;2023-04-03T11:15:38;8.90;99.90
1766;DHT22;880;52.452;8.656;2023-04-03T11:18:28;8.60;99.90
1766;DHT22;880;52.452;8.656;2023-04-03T11:23:51;8.80;99.90
1766;DHT22;880;52.452;8.656;2023-04-03T11:26:21;9.20;99.90
1766;DHT22;880;52.452;8.656;2023-04-03T11:29:02;9.80;99.90
1766;DHT22;880;52.452;8.656;2023-04-03T11:34:44;10.40;98.50
1766;DHT22;880;52.452;8.656;2023-04-03T11:37:33;10.50;96.00
1766;DHT22;880;52.452;8.656;2023-04-03T11:40:17;10.40;97.60
1766;DHT22;880;52.452;8.656;2023-04-03T11:42:49;10.40;99.30
1766;DHT22;880;52.452;8.656;2023-04-03T11:45:38;10.70;99.40
1766;DHT22;880;52.452;8.656;2023-04-03T11:53:54;11.00;97.40
1766;DHT22;880;52.452;8.656;2023-04-03T11:57:22;11.30;96.00
1766;DHT22;880;52.452;8.656;2023-04-03T11:59:58;11.40;94.60
1766;DHT22;880;52.452;8.656;2023-04-03T12:02:37;11.40;95.60
1766;DHT22;880;52.452;8.656;2023-04-03T12:05:28;11.30;93.70
1766;DHT22;880;52.452;8.656;2023-04-03T12:08:16;10.90;93.40
1766;DHT22;880;52.452;8.656;2023-04-03T12:26:44;9.20;97.10
1766;DHT22;880;52.452;8.656;2023-04-03T12:29:20;9.20;97.40
1766;DHT22;880;52.452;8.656;2023-04-03T12:35:24;9.70;98.10
1766;DHT22;880;52.452;8.656;2023-04-03T12:38:33;10.40;96.60
1766;DHT22;880;52.452;8.656;2023-04-03T12:44:00;11.10;94.40
1766;DHT22;880;52.452;8.656;2023-04-03T12:50:27;11.10;92.60
1766;DHT22;880;52.452;8.656;2023-04-03T12:55:31;11.30;92.00
1766;DHT22;880;52.452;8.656;2023-04-03T12:58:14;11.50;92.70
1766;DHT22;880;52.452;8.656;2023-04-03T13:00:43;11.80;92.80
1766;DHT22;880;52.452;8.656;2023-04-03T13:03:23;12.00;90.40
1766;DHT22;880;52.452;8.656;2023-04-03T13:06:00;12.00;90.90
1766;DHT22;880;52.452;8.656;2023-04-03T13:08:28;12.30;90.30
1766;DHT22;880;52.452;8.656;2023-04-03T13:11:04;12.30;88.10
1766;DHT22;880;52.452;8.656;2023-04-03T13:13:32;12.10;89.00
1766;DHT22;880;52.452;8.656;2023-04-03T13:16:08;11.90;90.10
1766;DHT22;880;52.452;8.656;2023-04-03T13:18:37;11.60;90.00
1766;DHT22;880;52.452;8.656;2023-04-03T13:21:17;11.40;91.30
1766;DHT22;880;52.452;8.656;2023-04-03T13:23:49;11.50;90.80
1766;DHT22;880;52.452;8.656;2023-04-03T13:26:31;11.60;90.00
1766;DHT22;880;52.452;8.656;2023-04-03T13:29:02;11.60;89.00
1766;DHT22;880;52.452;8.656;2023-04-03T13:31:36;11.50;89.10
1766;DHT22;880;52.452;8.656;2023-04-03T13:34:13;11.50;89.80
1766;DHT22;880;52.452;8.656;2023-04-03T13:41:50;11.00;89.80
1766;DHT22;880;52.452;8.656;2023-04-03T13:46:49;11.20;90.30
1766;DHT22;880;52.452;8.656;2023-04-03T13:49:39;11.60;91.10
1766;DHT22;880;52.452;8.656;2023-04-03T13:55:01;12.70;87.10
1766;DHT22;880;52.452;8.656;2023-04-03T13:57:35;12.90;85.60
1766;DHT22;880;52.452;8.656;2023-04-03T14:03:01;12.60;84.70
1766;DHT22;880;52.452;8.656;2023-04-03T14:05:28;12.80;80.90
1766;DHT22;880;52.452;8.656;2023-04-03T14:07:55;12.70;81.80
1766;DHT22;880;52.452;8.656;2023-04-03T14:10:23;13.00;80.90
1766;DHT22;880;52.452;8.656;2023-04-03T14:12:50;13.10;81.80
1766;DHT22;880;52.452;8.656;2023-04-03T14:15:27;13.10;79.30
1766;DHT22;880;52.452;8.656;2023-04-03T14:17:55;12.60;78.80
1766;DHT22;880;52.452;8.656;2023-04-03T14:20:25;12.10;82.10
1766;DHT22;880;52.452;8.656;2023-04-03T14:22:53;11.90;82.20
1766;DHT22;880;52.452;8.656;2023-04-03T14:25:21;12.00;85.40
1766;DHT22;880;52.452;8.656;2023-04-03T14:27:52;12.20;83.60
1766;DHT22;880;52.452;8.656;2023-04-03T14:30:24;12.30;81.90
1766;DHT22;880;52.452;8.656;2023-04-03T14:32:56;12.40;80.40
1766;DHT22;880;52.452;8.656;2023-04-03T14:35:24;12.50;80.80
1766;DHT22;880;52.452;8.656;2023-04-03T14:37:52;12.60;79.00
1766;DHT22;880;52.452;8.656;2023-04-03T14:40:29;12.50;77.90
1766;DHT22;880;52.452;8.656;2023-04-03T14:42:56;12.40;79.60
1766;DHT22;880;52.452;8.656;2023-04-03T14:45:24;12.40;80.80
1766;DHT22;880;52.452;8.656;2023-04-03T14:47:53;12.60;82.50
1766;DHT22;880;52.452;8.656;2023-04-03T14:50:26;12.90;76.80
1766;DHT22;880;52.452;8.656;2023-04-03T14:52:56;12.80;76.30
1766;DHT22;880;52.452;8.656;2023-04-03T14:55:25;12.90;75.80
1766;DHT22;880;52.452;8.656;2023-04-03T14:57:53;13.00;76.30
1766;DHT22;880;52.452;8.656;2023-04-03T15:00:21;12.80;76.90
1766;DHT22;880;52.452;8.656;2023-04-03T15:02:49;12.90;78.90
1766;DHT22;880;52.452;8.656;2023-04-03T15:05:16;12.90;74.20
1766;DHT22;880;52.452;8.656;2023-04-03T15:07:53;12.60;77.80
1766;DHT22;880;52.452;8.656;2023-04-03T15:10:24;12.50;75.00
1766;DHT22;880;52.452;8.656;2023-04-03T15:12:52;12.30;75.40
1766;DHT22;880;52.452;8.656;2023-04-03T15:15:20;12.20;76.70
1766;DHT22;880;52.452;8.656;2023-04-03T15:17:52;12.20;78.80
1766;DHT22;880;52.452;8.656;2023-04-03T15:20:24;12.10;79.80
1766;DHT22;880;52.452;8.656;2023-04-03T15:22:54;12.00;77.20
1766;DHT22;880;52.452;8.656;2023-04-03T15:25:23;11.70;77.40
1766;DHT22;880;52.452;8.656;2023-04-03T15:27:55;11.40;76.30
1766;DHT22;880;52.452;8.656;2023-04-03T15:30:23;11.50;78.70
1766;DHT22;880;52.452;8.656;2023-04-03T15:32:50;11.70;79.90
1766;DHT22;880;52.452;8.656;2023-04-03T15:35:18;12.00;78.50
1766;DHT22;880;52.452;8.656;2023-04-03T15:37:45;12.30;77.30
1766;DHT22;880;52.452;8.656;2023-04-03T15:40:12;12.50;77.90
1766;DHT22;880;52.452;8.656;2023-04-03T15:42:40;12.50;77.20
1766;DHT22;880;52.452;8.656;2023-04-03T15:45:07;12.60;74.60
1766;DHT22;880;52.452;8.656;2023-04-03T15:47:35;12.70;75.70
1766;DHT22;880;52.452;8.656;2023-04-03T15:50:03;12.70;74.10
1766;DHT22;880;52.452;8.656;2023-04-03T15:52:32;12.70;75.30
1766;DHT22;880;52.452;8.656;2023-04-03T15:54:59;12.60;72.30
1766;DHT22;880;52.452;8.656;2023-04-03T15:57:26;12.20;72.70
1766;DHT22;880;52.452;8.656;2023-04-03T15:59:53;11.90;71.40
1766;DHT22;880;52.452;8.656;2023-04-03T16:02:20;11.70;74.00
1766;DHT22;880;52.452;8.656;2023-04-03T16:04:48;11.60;76.20
1766;DHT22;880;52.452;8.656;2023-04-03T16:07:15;11.90;78.10
1766;DHT22;880;52.452;8.656;2023-04-03T16:09:42;12.00;75.40
1766;DHT22;880;52.452;8.656;2023-04-03T16:12:09;11.80;72.50
1766;DHT22;880;52.452;8.656;2023-04-03T16:14:36;11.60;76.50
1766;DHT22;880;52.452;8.656;2023-04-03T16:17:03;11.70;78.30
1766;DHT22;880;52.452;8.656;2023-04-03T16:19:30;12.00;78.80
1766;DHT22;880;52.452;8.656;2023-04-03T16:21:57;12.40;81.80
1766;DHT22;880;52.452;8.656;2023-04-03T16:24:24;12.50;79.40
1766;DHT22;880;52.452;8.656;2023-04-03T16:26:51;12.40;80.10
1766;DHT22;880;52.452;8.656;2023-04-03T16:29:20;12.10;82.10
1766;DHT22;880;52.452;8.656;2023-04-03T16:31:46;11.90;78.60
1766;DHT22;880;52.452;8.656;2023-04-03T16:34:14;11.80;79.20
1766;DHT22;880;52.452;8.656;2023-04-03T16:36:41;11.70;79.90
1766;DHT22;880;52.452;8.656;2023-04-03T16:39:08;11.70;82.00
1766;DHT22;880;52.452;8.656;2023-04-03T16:41:38;11.70;82.00
1766;DHT22;880;52.452;8.656;2023-04-03T16:44:05;11.80;80.30
1766;DHT22;880;52.452;8.656;2023-04-03T16:46:34;11.70;77.20
1766;DHT22;880;52.452;8.656;2023-04-03T16:49:01;11.50;79.40
1766;DHT22;880;52.452;8.656;2023-04-03T16:51:28;11.40;77.40
1766;DHT22;880;52.452;8.656;2023-04-03T16:53:55;11.20;77.40
1766;DHT22;880;52.452;8.656;2023-04-03T16:56:22;10.80;77.50
1766;DHT22;880;52.452;8.656;2023-04-03T16:58:50;10.50;79.30
1766;DHT22;880;52.452;8.656;2023-04-03T17:01:18;10.20;79.30
1766;DHT22;880;52.452;8.656;2023-04-03T17:03:47;10.00;80.50
1766;DHT22;880;52.452;8.656;2023-04-03T17:06:19;9.90;82.70
1766;DHT22;880;52.452;8.656;2023-04-03T17:08:48;9.80;83.20
1766;DHT22;880;52.452;8.656;2023-04-03T17:11:27;9.70;84.40
1766;DHT22;880;52.452;8.656;2023-04-03T17:13:54;9.80;85.10
1766;DHT22;880;52.452;8.656;2023-04-03T17:16:22;9.70;84.40
1766;DHT22;880;52.452;8.656;2023-04-03T17:18:50;9.70;85.10
1766;DHT22;880;52.452;8.656;2023-04-03T17:21:19;9.70;85.50
1766;DHT22;880;52.452;8.656;2023-04-03T17:23:49;9.70;85.10
1766;DHT22;880;52.452;8.656;2023-04-03T17:26:19;9.70;85.50
1766;DHT22;880;52.452;8.656;2023-04-03T17:28:47;9.50;86.00
1766;DHT22;880;52.452;8.656;2023-04-03T17:31:14;9.40;87.80
1766;DHT22;880;52.452;8.656;2023-04-03T17:33:41;9.40;88.70
1766;DHT22;880;52.452;8.656;2023-04-03T17:36:08;9.30;88.70
1766;DHT22;880;52.452;8.656;2023-04-03T17:38:36;9.20;90.00
1766;DHT22;880;52.452;8.656;2023-04-03T17:41:06;9.10;90.40
1766;DHT22;880;52.452;8.656;2023-04-03T17:43:34;9.00;91.00
1766;DHT22;880;52.452;8.656;2023-04-03T17:46:03;8.90;91.00
1766;DHT22;880;52.452;8.656;2023-04-03T17:48:37;8.70;91.10
1766;DHT22;880;52.452;8.656;2023-04-03T17:51:10;8.70;91.20
1766;DHT22;880;52.452;8.656;2023-04-03T17:53:39;8.70;90.70
1766;DHT22;880;52.452;8.656;2023-04-03T17:56:12;8.70;90.70
1766;DHT22;880;52.452;8.656;2023-04-03T17:58:41;8.70;90.80
1766;DHT22;880;52.452;8.656;2023-04-03T18:01:13;8.70;91.00
1766;DHT22;880;52.452;8.656;2023-04-03T18:03:43;8.60;91.30
1766;DHT22;880;52.452;8.656;2023-04-03T18:06:13;8.70;91.10
1766;DHT22;880;52.452;8.656;2023-04-03T18:08:52;8.70;91.30
1766;DHT22;880;52.452;8.656;2023-04-03T18:11:22;8.60;91.50
1766;DHT22;880;52.452;8.656;2023-04-03T18:13:54;8.50;91.60
1766;DHT22;880;52.452;8.656;2023-04-03T18:16:25;8.50;92.00
1766;DHT22;880;52.452;8.656;2023-04-03T18:18:52;8.40;91.90
1766;DHT22;880;52.452;8.656;2023-04-03T18:21:39;8.40;92.20
1766;DHT22;880;52.452;8.656;2023-04-03T18:24:12;8.40;92.20
1766;DHT22;880;52.452;8.656;2023-04-03T18:26:41;8.30;92.70